Time;durP1;ratioP1;P1;durP2;ratioP2;P2;SDS_P1;SDS_P2;PMS_P1;PMS_P2;Temp;Humidity;BMP_temperature;BMP_pressure;BME280_temperature;BME280_humidity;BME280_pressure;Samples;Min_cycle;Max_cycle;Signal;HPM_P1;HPM_P2
2021/11/07 00:09:27;;;;;;;15.10;12.50;;;;;;;3.35;73.12;99987.80;468284;1189;142067;-61
2021/11/07 00:19:34;;;;;;;17.40;13.40;;;;;;;3.28;73.30;99980.73;467834;1189;141161;-62
2021/11/07 00:29:41;;;;;;;20.40;14.00;;;;;;;3.14;73.69;99971.23;474354;1189;141808;-61
2021/11/07 00:39:49;;;;;;;16.90;12.60;;;;;;;3.01;73.38;99961.04;477604;1189;141672;-61
2021/11/07 00:49:57;;;;;;;16.40;11.80;;;;;;;2.88;73.53;99952.39;477714;1190;141397;-63
2021/11/07 01:00:04;;;;;;;14.70;12.00;;;;;;;2.72;73.68;99941.02;471105;1190;141815;-61
2021/11/07 01:10:09;;;;;;;14.50;10.60;;;;;;;2.51;73.69;99922.05;474131;1190;142737;-67
2021/11/07 01:20:14;;;;;;;14.60;11.10;;;;;;;2.32;73.93;99906.96;461067;1177;142864;-68
2021/11/07 01:30:22;;;;;;;17.00;11.70;;;;;;;2.14;74.22;99886.33;477001;1189;145345;-66
2021/11/07 01:40:26;;;;;;;14.60;11.60;;;;;;;1.96;74.15;99867.59;477780;1189;141037;-67
2021/11/07 01:50:33;;;;;;;19.30;13.00;;;;;;;1.82;74.54;99847.70;463595;1190;162230;-66
2021/11/07 02:00:39;;;;;;;16.60;12.50;;;;;;;1.71;74.80;99834.33;460763;1190;141432;-67
2021/11/07 02:10:43;;;;;;;19.20;12.40;;;;;;;1.58;75.14;99815.32;461552;1190;143189;-67
2021/11/07 02:20:48;;;;;;;18.80;11.80;;;;;;;1.48;75.28;99791.56;460591;1190;141081;-65
2021/11/07 02:30:52;;;;;;;18.20;13.90;;;;;;;1.39;75.47;99782.62;461712;1189;142540;-67
2021/11/07 02:40:55;;;;;;;21.90;15.50;;;;;;;1.33;75.78;99764.14;461512;1189;141575;-66
2021/11/07 02:51:01;;;;;;;16.80;13.10;;;;;;;1.31;76.05;99754.17;460599;1190;140421;-66
2021/11/07 03:01:04;;;;;;;18.60;13.90;;;;;;;1.38;76.18;99743.83;461538;1189;141080;-68
2021/11/07 03:11:08;;;;;;;17.50;12.00;;;;;;;1.43;76.19;99739.40;461223;1190;141309;-66
2021/11/07 03:21:18;;;;;;;19.10;12.90;;;;;;;1.46;76.28;99718.29;460733;1190;141682;-66
2021/11/07 03:31:27;;;;;;;16.80;11.90;;;;;;;1.44;76.38;99705.55;460642;1174;141630;-68
2021/11/07 03:41:31;;;;;;;14.70;13.10;;;;;;;1.40;76.51;99688.77;460055;1189;142884;-64
2021/11/07 03:51:35;;;;;;;16.60;12.50;;;;;;;1.31;76.76;99672.59;460616;1189;141208;-67
2021/11/07 04:01:38;;;;;;;16.40;12.80;;;;;;;1.23;76.84;99663.80;477791;1189;140797;-67
2021/11/07 04:11:43;;;;;;;17.60;12.30;;;;;;;1.10;76.97;99643.75;476971;1190;143296;-67
2021/11/07 04:21:49;;;;;;;17.90;13.30;;;;;;;1.00;77.10;99630.38;477827;1190;143503;-67
2021/11/07 04:31:52;;;;;;;18.10;13.10;;;;;;;0.99;77.64;99604.73;472411;1190;143137;-67
2021/11/07 04:41:56;;;;;;;16.40;12.40;;;;;;;1.10;77.67;99587.39;460111;1190;142160;-67
2021/11/07 04:51:59;;;;;;;20.00;13.40;;;;;;;1.22;77.75;99582.45;460961;1187;141175;-66
2021/11/07 05:02:03;;;;;;;18.90;11.70;;;;;;;1.29;77.78;99564.51;461074;1190;141425;-67
2021/11/07 05:12:08;;;;;;;17.80;13.60;;;;;;;1.25;77.75;99542.17;469329;1190;141683;-65
2021/11/07 05:22:11;;;;;;;18.00;12.80;;;;;;;1.28;77.72;99525.03;477816;1190;141831;-67
2021/11/07 05:32:15;;;;;;;15.90;12.30;;;;;;;1.36;77.73;99528.11;472937;1190;142459;-69
2021/11/07 05:42:19;;;;;;;15.00;12.10;;;;;;;1.56;77.69;99522.53;461173;1190;141281;-66
2021/11/07 05:52:22;;;;;;;16.60;11.70;;;;;;;1.81;77.61;99499.73;469189;1190;141269;-67
2021/11/07 06:02:26;;;;;;;15.20;9.70;;;;;;;2.37;77.30;99500.80;471970;1189;141861;-66
2021/11/07 06:12:28;;;;;;;15.70;11.50;;;;;;;2.88;76.78;99487.95;477586;1190;140863;-67
2021/11/07 06:22:32;;;;;;;12.50;8.80;;;;;;;3.23;75.66;99482.07;477888;1189;142212;-67
2021/11/07 06:32:36;;;;;;;9.80;8.30;;;;;;;3.54;74.89;99471.63;472996;1190;141331;-67
2021/11/07 06:42:40;;;;;;;12.20;9.10;;;;;;;3.87;74.23;99452.03;462229;1190;142031;-66
2021/11/07 06:52:46;;;;;;;14.30;9.50;;;;;;;4.31;73.44;99430.04;477884;1190;141216;-68
2021/11/07 07:02:50;;;;;;;10.20;8.80;;;;;;;4.54;72.88;99421.66;476981;1189;141574;-69
2021/11/07 07:13:00;;;;;;;10.50;8.30;;;;;;;4.79;72.15;99419.56;461234;1190;140821;-66
2021/11/07 07:23:31;;;;;;;9.10;6.90;;;;;;;4.99;71.35;99400.31;467053;1190;141466;-67
2021/11/07 07:33:38;;;;;;;8.60;7.40;;;;;;;5.70;70.72;99389.50;460792;1190;142801;-67
2021/11/07 07:43:42;;;;;;;8.90;6.80;;;;;;;7.83;69.38;99360.73;477854;1189;140827;-69
2021/11/07 07:53:46;;;;;;;6.50;5.80;;;;;;;10.61;64.60;99346.19;477066;1189;140792;-68
2021/11/07 08:03:50;;;;;;;7.40;6.10;;;;;;;9.02;63.40;99336.73;462581;1190;140958;-68
2021/11/07 08:13:54;;;;;;;7.10;5.80;;;;;;;8.04;63.75;99317.57;464326;1190;140369;-67
2021/11/07 08:23:59;;;;;;;6.70;5.60;;;;;;;7.23;64.20;99302.23;477962;1189;140904;-68
2021/11/07 08:34:04;;;;;;;8.90;6.40;;;;;;;6.82;64.44;99286.30;461686;1190;140349;-69
2021/11/07 09:05:10;;;;;;;8.40;6.40;;;;;;;8.33;62.34;99238.92;460988;1189;141706;-68
2021/11/07 09:15:14;;;;;;;7.30;6.40;;;;;;;7.99;61.82;99227.35;473976;1189;140873;-69
2021/11/07 09:25:22;;;;;;;11.30;7.00;;;;;;;7.81;61.89;99204.75;465463;1189;139573;-67
2021/11/07 09:35:40;;;;;;;9.10;6.30;;;;;;;7.82;61.88;99191.42;465297;1190;140890;-69
2021/11/07 09:45:50;;;;;;;11.40;7.20;;;;;;;7.95;61.75;99175.13;477737;1190;140230;-68
2021/11/07 09:55:54;;;;;;;11.70;7.80;;;;;;;8.00;61.30;99153.59;477810;1190;139974;-68
2021/11/07 10:05:58;;;;;;;8.60;5.70;;;;;;;8.13;61.12;99116.19;477833;1188;141530;-69
2021/11/07 10:16:05;;;;;;;7.90;5.60;;;;;;;8.45;60.39;99102.57;478234;1189;140647;-67
2021/11/07 10:26:15;;;;;;;5.80;5.10;;;;;;;8.65;60.24;99099.91;444967;1189;20001152;-67
2021/11/07 10:46:56;;;;;;;7.40;5.20;;;;;;;9.10;59.20;99063.52;456882;1189;10002554;-67
2021/11/07 10:57:20;;;;;;;6.20;4.10;;;;;;;9.81;58.23;99041.29;475287;1189;140744;-71
2021/11/07 11:07:26;;;;;;;5.00;4.40;;;;;;;9.87;57.24;99042.94;463236;1190;139793;-69
2021/11/07 11:17:41;;;;;;;6.70;5.40;;;;;;;9.35;57.55;99037.58;466610;1190;139986;-69
2021/11/07 11:38:14;;;;;;;8.00;6.00;;;;;;;8.44;58.33;99014.67;472200;1182;141162;-71
2021/11/07 11:48:43;;;;;;;10.50;7.60;;;;;;;8.10;58.53;99015.95;466018;1189;139223;-71
2021/11/07 11:58:53;;;;;;;10.00;6.50;;;;;;;7.82;59.18;99004.11;475529;1189;140200;-70
2021/11/07 12:09:28;;;;;;;8.90;6.60;;;;;;;7.77;59.65;98992.05;476701;1189;141003;-63
2021/11/07 12:19:35;;;;;;;18.80;11.80;;;;;;;7.77;59.91;98984.91;474373;1189;139967;-62
2021/11/07 12:29:40;;;;;;;9.40;6.00;;;;;;;7.75;60.03;98983.11;477074;1189;139930;-66
2021/11/07 12:50:09;;;;;;;15.80;8.40;;;;;;;7.63;61.04;98971.95;470518;1189;140310;-64
2021/11/07 13:00:16;;;;;;;6.80;4.80;;;;;;;7.49;62.52;98961.14;467413;1189;140528;-63
2021/11/07 13:10:24;;;;;;;20.40;9.60;;;;;;;7.35;63.64;98958.16;478834;1189;142096;-63
2021/11/07 13:20:43;;;;;;;10.60;6.40;;;;;;;7.28;63.72;98950.91;470832;1189;10001859;-63
2021/11/07 13:31:04;;;;;;;13.90;8.20;;;;;;;7.17;64.47;98948.63;463876;1189;141472;-62
2021/11/07 13:41:17;;;;;;;33.10;12.60;;;;;;;6.94;65.94;98942.67;463158;1190;141012;-63
2021/11/07 13:51:21;;;;;;;15.70;8.40;;;;;;;6.73;66.87;98939.38;471976;1189;141475;-64
2021/11/07 14:01:29;;;;;;;12.00;7.40;;;;;;;6.54;67.35;98942.70;476227;1181;141447;-64
2021/11/07 14:11:36;;;;;;;26.80;13.70;;;;;;;6.47;67.88;98939.49;466431;1189;140980;-63
2021/11/07 14:21:42;;;;;;;11.70;8.20;;;;;;;6.44;68.12;98930.09;461281;1189;142138;-62
2021/11/07 14:31:53;;;;;;;18.00;10.20;;;;;;;6.44;68.26;98925.73;464738;1189;140740;-64
2021/11/07 14:52:46;;;;;;;14.90;9.30;;;;;;;6.48;68.26;98903.09;478505;1188;143215;-64
2021/11/07 15:03:00;;;;;;;13.60;10.20;;;;;;;6.53;68.24;98892.53;474812;1189;142489;-63
2021/11/07 15:13:39;;;;;;;12.90;9.30;;;;;;;6.58;68.08;98898.66;469801;1189;141386;-63
2021/11/07 15:23:44;;;;;;;12.70;8.60;;;;;;;6.58;68.16;98915.54;467007;1190;141511;-63
2021/11/07 15:33:47;;;;;;;9.30;7.70;;;;;;;6.57;68.13;98914.02;463062;1190;140215;-64
2021/11/07 15:43:51;;;;;;;8.90;6.90;;;;;;;6.54;68.16;98911.10;470220;1189;140506;-63
2021/11/07 15:54:02;;;;;;;13.50;8.50;;;;;;;6.53;68.39;98909.42;477505;1189;143523;-64
2021/11/07 16:04:12;;;;;;;10.60;7.90;;;;;;;6.54;68.99;98912.10;467862;1190;141602;-63
2021/11/07 16:14:31;;;;;;;11.00;8.50;;;;;;;6.41;69.95;98918.40;466016;1189;144870;-64
2021/11/07 16:24:35;;;;;;;13.20;8.90;;;;;;;6.24;70.82;98926.84;467004;1189;140900;-62
2021/11/07 16:34:47;;;;;;;13.50;10.90;;;;;;;6.11;71.58;98924.78;462117;1190;141709;-63
2021/11/07 16:44:51;;;;;;;12.10;9.60;;;;;;;6.00;72.30;98920.70;472631;1188;161321;-64
2021/11/07 16:54:58;;;;;;;14.30;9.20;;;;;;;5.95;72.94;98924.63;475280;1189;140284;-62
2021/11/07 17:05:04;;;;;;;12.10;10.50;;;;;;;5.93;73.45;98921.23;472979;1188;141996;-62
2021/11/07 17:15:11;;;;;;;15.10;11.90;;;;;;;5.92;73.84;98924.61;468526;1189;140909;-64
2021/11/07 17:25:17;;;;;;;12.10;9.60;;;;;;;5.84;74.31;98936.36;474345;1190;141511;-64
2021/11/07 17:35:27;;;;;;;12.80;9.50;;;;;;;5.77;74.72;98937.95;473739;1190;141080;-64
2021/11/07 17:55:54;;;;;;;13.30;10.10;;;;;;;5.55;75.72;98938.08;467124;1189;143315;-64
2021/11/07 18:05:57;;;;;;;12.20;10.50;;;;;;;5.48;76.12;98941.19;466392;1189;141725;-63
2021/11/07 18:16:02;;;;;;;15.50;11.80;;;;;;;5.42;76.21;98940.65;478698;1189;141866;-59
2021/11/07 18:26:07;;;;;;;12.70;10.00;;;;;;;5.40;76.53;98946.80;478600;1189;141640;-60
2021/11/07 18:36:10;;;;;;;15.60;10.80;;;;;;;5.46;76.65;98941.65;463847;1190;141167;-60
2021/11/07 18:46:14;;;;;;;11.80;9.40;;;;;;;5.49;76.80;98939.45;464046;1190;140207;-62
2021/11/07 18:56:18;;;;;;;10.60;8.80;;;;;;;5.47;76.94;98940.38;465272;1189;140624;-63
2021/11/07 19:06:22;;;;;;;12.00;9.10;;;;;;;5.48;77.07;98945.02;476861;1190;142100;-65
2021/11/07 19:16:26;;;;;;;10.40;7.80;;;;;;;5.54;76.93;98946.30;470932;1190;141227;-63
2021/11/07 19:26:30;;;;;;;11.20;8.60;;;;;;;5.60;76.79;98948.75;460286;1190;164571;-63
2021/11/07 19:36:34;;;;;;;12.00;9.50;;;;;;;5.59;76.83;98961.30;462477;1177;150729;-67
2021/11/07 19:46:39;;;;;;;12.10;9.30;;;;;;;5.46;76.63;98962.65;463673;1190;141174;-64
2021/11/07 19:56:42;;;;;;;10.40;8.50;;;;;;;5.33;76.73;98971.16;461499;1190;141449;-62
2021/11/07 20:07:07;;;;;;;10.60;8.30;;;;;;;5.37;76.86;98987.59;462893;1190;184871;-64
2021/11/07 20:17:13;;;;;;;11.40;8.40;;;;;;;5.57;76.79;98988.50;461925;1190;142222;-64
2021/11/07 20:27:24;;;;;;;15.30;9.80;;;;;;;5.64;76.53;98998.20;466199;1190;141613;-65
2021/11/07 20:37:30;;;;;;;11.30;8.70;;;;;;;5.69;76.45;99013.02;462251;1190;140814;-64
2021/11/07 20:47:38;;;;;;;11.40;9.20;;;;;;;5.71;76.21;99023.70;462042;1190;141427;-63
2021/11/07 20:57:54;;;;;;;11.30;9.60;;;;;;;5.69;76.13;99028.15;461407;1190;141500;-64
2021/11/07 21:08:01;;;;;;;10.30;8.90;;;;;;;5.72;76.22;99036.13;465193;1190;141895;-65
2021/11/07 21:28:29;;;;;;;10.20;6.40;;;;;;;5.76;75.99;99047.39;474998;1189;142038;-64
2021/11/07 21:38:36;;;;;;;8.50;6.90;;;;;;;5.76;75.78;99049.31;476634;1190;151265;-62
2021/11/07 21:48:40;;;;;;;6.90;6.00;;;;;;;5.65;76.00;99054.59;469504;1189;142503;-63
2021/11/07 21:58:44;;;;;;;10.90;8.40;;;;;;;5.55;76.11;99055.40;470315;1189;141491;-63
2021/11/07 22:08:48;;;;;;;10.50;8.90;;;;;;;5.17;76.33;99061.34;460796;1190;143775;-62
2021/11/07 22:18:57;;;;;;;12.30;8.40;;;;;;;5.02;76.80;99066.23;461891;1189;141222;-59
2021/11/07 22:29:04;;;;;;;12.00;9.20;;;;;;;5.08;77.03;99069.61;461158;1190;141774;-62
2021/11/07 22:39:09;;;;;;;11.60;8.30;;;;;;;5.12;77.10;99073.20;463463;1190;141670;-62
2021/11/07 22:49:20;;;;;;;11.80;7.90;;;;;;;5.06;77.21;99079.21;462724;1189;140728;-61
2021/11/07 23:09:56;;;;;;;10.60;7.90;;;;;;;5.09;77.47;99095.92;462048;1189;140338;-60
2021/11/07 23:20:04;;;;;;;8.50;7.30;;;;;;;5.12;77.42;99091.77;462421;1190;141493;-72
2021/11/07 23:30:13;;;;;;;8.50;7.10;;;;;;;5.19;77.40;99092.63;461988;1190;140628;-71
2021/11/07 23:40:24;;;;;;;8.80;6.70;;;;;;;5.25;77.39;99093.21;462773;1190;141151;-68
2021/11/07 23:50:45;;;;;;;7.70;6.90;;;;;;;5.24;77.20;99094.98;461507;1190;140963;-65
